sensor_id;sensor_type;location;lat;lon;timestamp;pressure;altitude;pressure_sealevel;temperature;humidity
31595;BME280;18200;48.726;8.892;2023-05-08T00:02:25;97004.66;;;29.56;39.94
31595;BME280;18200;48.726;8.892;2023-05-08T00:06:25;97009.16;;;29.06;40.11
31595;BME280;18200;48.726;8.892;2023-05-08T00:10:27;97002.44;;;28.98;40.76
31595;BME280;18200;48.726;8.892;2023-05-08T00:14:28;97001.44;;;29.20;40.28
31595;BME280;18200;48.726;8.892;2023-05-08T00:18:28;97002.00;;;29.24;40.49
31595;BME280;18200;48.726;8.892;2023-05-08T00:22:29;97009.31;;;29.50;39.62
31595;BME280;18200;48.726;8.892;2023-05-08T00:26:29;97008.75;;;29.61;39.76
31595;BME280;18200;48.726;8.892;2023-05-08T00:30:30;97012.41;;;29.67;39.24
31595;BME280;18200;48.726;8.892;2023-05-08T00:34:31;97008.06;;;29.75;39.63
31595;BME280;18200;48.726;8.892;2023-05-08T00:38:32;97009.22;;;29.83;39.20
31595;BME280;18200;48.726;8.892;2023-05-08T00:42:32;97013.94;;;29.68;38.97
31595;BME280;18200;48.726;8.892;2023-05-08T00:46:34;97019.19;;;29.66;38.96
31595;BME280;18200;48.726;8.892;2023-05-08T00:50:35;97019.53;;;29.97;38.71
31595;BME280;18200;48.726;8.892;2023-05-08T00:54:36;97016.72;;;29.68;39.04
31595;BME280;18200;48.726;8.892;2023-05-08T00:58:38;97025.44;;;29.75;38.74
31595;BME280;18200;48.726;8.892;2023-05-08T01:02:39;97017.44;;;29.92;38.87
31595;BME280;18200;48.726;8.892;2023-05-08T01:06:40;97024.13;;;30.00;38.51
31595;BME280;18200;48.726;8.892;2023-05-08T01:10:43;97025.78;;;29.68;38.79
31595;BME280;18200;48.726;8.892;2023-05-08T01:24:03;97020.31;;;29.98;38.45
31595;BME280;18200;48.726;8.892;2023-05-08T01:32:50;97021.28;;;29.33;39.45
31595;BME280;18200;48.726;8.892;2023-05-08T01:37:00;97025.75;;;29.54;39.32
31595;BME280;18200;48.726;8.892;2023-05-08T01:41:07;97027.47;;;29.51;39.21
31595;BME280;18200;48.726;8.892;2023-05-08T01:45:19;97024.69;;;29.75;38.77
31595;BME280;18200;48.726;8.892;2023-05-08T01:49:26;97023.34;;;29.85;38.85
31595;BME280;18200;48.726;8.892;2023-05-08T01:53:35;97022.03;;;29.95;38.95
31595;BME280;18200;48.726;8.892;2023-05-08T01:57:42;97035.78;;;29.75;38.61
31595;BME280;18200;48.726;8.892;2023-05-08T02:01:43;97036.50;;;29.75;39.08
31595;BME280;18200;48.726;8.892;2023-05-08T02:05:47;97034.94;;;29.60;38.68
31595;BME280;18200;48.726;8.892;2023-05-08T02:09:50;97039.44;;;29.34;38.95
31595;BME280;18200;48.726;8.892;2023-05-08T02:13:52;97026.16;;;29.61;38.26
31595;BME280;18200;48.726;8.892;2023-05-08T02:17:54;97036.63;;;29.43;39.46
31595;BME280;18200;48.726;8.892;2023-05-08T02:21:57;97035.38;;;29.44;38.60
31595;BME280;18200;48.726;8.892;2023-05-08T02:25:59;97030.28;;;29.66;38.49
31595;BME280;18200;48.726;8.892;2023-05-08T02:30:02;97035.78;;;29.75;38.84
31595;BME280;18200;48.726;8.892;2023-05-08T02:34:03;97039.69;;;29.83;38.95
31595;BME280;18200;48.726;8.892;2023-05-08T02:38:05;97041.13;;;29.93;38.26
31595;BME280;18200;48.726;8.892;2023-05-08T02:42:10;97040.75;;;29.85;38.34
31595;BME280;18200;48.726;8.892;2023-05-08T02:46:24;97029.69;;;30.00;38.08
31595;BME280;18200;48.726;8.892;2023-05-08T02:54:55;97044.13;;;29.66;38.30
31595;BME280;18200;48.726;8.892;2023-05-08T02:59:12;97045.25;;;29.59;38.54
31595;BME280;18200;48.726;8.892;2023-05-08T03:03:19;97040.09;;;29.67;38.88
31595;BME280;18200;48.726;8.892;2023-05-08T03:07:24;97041.41;;;29.57;39.38
31595;BME280;18200;48.726;8.892;2023-05-08T03:11:27;97042.84;;;29.52;38.60
31595;BME280;18200;48.726;8.892;2023-05-08T03:15:42;97035.84;;;29.42;38.98
31595;BME280;18200;48.726;8.892;2023-05-08T03:19:47;97039.09;;;29.41;38.74
31595;BME280;18200;48.726;8.892;2023-05-08T03:23:51;97030.72;;;29.02;38.88
31595;BME280;18200;48.726;8.892;2023-05-08T03:27:52;97041.50;;;28.17;40.71
31595;BME280;18200;48.726;8.892;2023-05-08T03:31:55;97034.56;;;28.72;40.33
31595;BME280;18200;48.726;8.892;2023-05-08T03:35:56;97037.59;;;29.54;38.98
31595;BME280;18200;48.726;8.892;2023-05-08T03:39:57;97042.69;;;29.56;38.91
31595;BME280;18200;48.726;8.892;2023-05-08T03:43:58;97031.09;;;29.43;39.10
31595;BME280;18200;48.726;8.892;2023-05-08T03:48:03;97030.69;;;29.50;38.85
31595;BME280;18200;48.726;8.892;2023-05-08T03:52:04;97038.91;;;29.44;38.72
31595;BME280;18200;48.726;8.892;2023-05-08T03:56:05;97038.56;;;29.51;38.89
31595;BME280;18200;48.726;8.892;2023-05-08T04:00:21;97038.63;;;28.62;39.81
31595;BME280;18200;48.726;8.892;2023-05-08T04:04:38;97040.03;;;29.38;39.04
31595;BME280;18200;48.726;8.892;2023-05-08T04:08:43;97047.75;;;29.34;38.74
31595;BME280;18200;48.726;8.892;2023-05-08T04:17:01;97054.88;;;29.26;38.93
31595;BME280;18200;48.726;8.892;2023-05-08T04:21:08;97048.84;;;29.03;39.73
31595;BME280;18200;48.726;8.892;2023-05-08T04:25:09;97065.19;;;29.25;39.60
31595;BME280;18200;48.726;8.892;2023-05-08T04:29:12;97063.72;;;29.39;39.16
31595;BME280;18200;48.726;8.892;2023-05-08T04:33:14;97066.56;;;29.30;38.88
31595;BME280;18200;48.726;8.892;2023-05-08T04:37:28;97062.75;;;29.42;39.69
31595;BME280;18200;48.726;8.892;2023-05-08T04:41:32;97067.72;;;29.38;38.94
31595;BME280;18200;48.726;8.892;2023-05-08T04:45:33;97071.94;;;29.00;39.72
31595;BME280;18200;48.726;8.892;2023-05-08T04:49:33;97073.97;;;29.24;39.61
31595;BME280;18200;48.726;8.892;2023-05-08T04:53:34;97076.06;;;29.29;38.99
31595;BME280;18200;48.726;8.892;2023-05-08T04:57:34;97077.97;;;29.23;39.25
31595;BME280;18200;48.726;8.892;2023-05-08T05:01:35;97078.84;;;29.52;38.92
31595;BME280;18200;48.726;8.892;2023-05-08T05:05:35;97082.66;;;29.55;39.04
31595;BME280;18200;48.726;8.892;2023-05-08T05:09:36;97083.19;;;29.68;38.57
31595;BME280;18200;48.726;8.892;2023-05-08T05:13:38;97086.91;;;29.65;39.24
31595;BME280;18200;48.726;8.892;2023-05-08T05:17:39;97087.38;;;29.40;38.58
31595;BME280;18200;48.726;8.892;2023-05-08T05:21:40;97087.16;;;29.29;39.30
31595;BME280;18200;48.726;8.892;2023-05-08T05:25:41;97092.94;;;29.40;39.15
31595;BME280;18200;48.726;8.892;2023-05-08T05:29:41;97091.28;;;29.57;39.43
31595;BME280;18200;48.726;8.892;2023-05-08T05:33:41;97095.50;;;29.67;38.47
31595;BME280;18200;48.726;8.892;2023-05-08T05:37:42;97103.41;;;29.83;38.88
31595;BME280;18200;48.726;8.892;2023-05-08T05:41:43;97102.50;;;29.39;38.72
31595;BME280;18200;48.726;8.892;2023-05-08T05:45:44;97104.34;;;29.33;39.26
31595;BME280;18200;48.726;8.892;2023-05-08T05:49:45;97100.09;;;29.70;39.21
31595;BME280;18200;48.726;8.892;2023-05-08T05:53:49;97108.66;;;29.34;39.33
31595;BME280;18200;48.726;8.892;2023-05-08T05:57:49;97105.31;;;29.30;39.75
31595;BME280;18200;48.726;8.892;2023-05-08T06:01:50;97106.66;;;29.01;40.36
31595;BME280;18200;48.726;8.892;2023-05-08T06:05:51;97108.19;;;29.59;39.62
31595;BME280;18200;48.726;8.892;2023-05-08T06:09:53;97111.44;;;29.81;39.47
31595;BME280;18200;48.726;8.892;2023-05-08T06:13:53;97113.44;;;29.57;39.35
31595;BME280;18200;48.726;8.892;2023-05-08T06:17:54;97106.78;;;28.56;41.16
31595;BME280;18200;48.726;8.892;2023-05-08T06:21:54;97115.41;;;28.67;41.80
31595;BME280;18200;48.726;8.892;2023-05-08T06:25:54;97119.25;;;29.02;41.29
31595;BME280;18200;48.726;8.892;2023-05-08T06:29:55;97123.69;;;28.67;41.68
31595;BME280;18200;48.726;8.892;2023-05-08T06:33:55;97115.66;;;29.44;39.37
31595;BME280;18200;48.726;8.892;2023-05-08T06:37:56;97125.75;;;29.32;39.75
31595;BME280;18200;48.726;8.892;2023-05-08T06:41:56;97127.69;;;29.88;39.12
31595;BME280;18200;48.726;8.892;2023-05-08T06:46:02;97130.09;;;30.33;37.58
31595;BME280;18200;48.726;8.892;2023-05-08T06:50:03;97120.50;;;29.81;38.45
31595;BME280;18200;48.726;8.892;2023-05-08T06:54:03;97117.25;;;29.59;38.71
31595;BME280;18200;48.726;8.892;2023-05-08T06:58:07;97121.31;;;29.26;39.50
31595;BME280;18200;48.726;8.892;2023-05-08T07:02:08;97122.78;;;29.36;39.09
31595;BME280;18200;48.726;8.892;2023-05-08T07:06:11;97125.28;;;30.19;37.77
31595;BME280;18200;48.726;8.892;2023-05-08T07:10:11;97121.09;;;29.62;38.35
31595;BME280;18200;48.726;8.892;2023-05-08T07:14:12;97123.00;;;30.76;37.07
31595;BME280;18200;48.726;8.892;2023-05-08T07:18:12;97132.47;;;29.64;38.17
31595;BME280;18200;48.726;8.892;2023-05-08T07:22:12;97124.81;;;30.79;36.61
31595;BME280;18200;48.726;8.892;2023-05-08T07:26:13;97127.50;;;30.74;36.39
31595;BME280;18200;48.726;8.892;2023-05-08T07:30:13;97126.50;;;30.18;37.03
31595;BME280;18200;48.726;8.892;2023-05-08T07:34:14;97129.97;;;29.19;38.65
31595;BME280;18200;48.726;8.892;2023-05-08T07:38:14;97131.06;;;28.70;40.32
31595;BME280;18200;48.726;8.892;2023-05-08T07:42:15;97130.59;;;30.08;38.41
31595;BME280;18200;48.726;8.892;2023-05-08T07:46:17;97136.97;;;29.85;38.62
31595;BME280;18200;48.726;8.892;2023-05-08T07:50:18;97136.38;;;29.25;39.70
31595;BME280;18200;48.726;8.892;2023-05-08T07:54:19;97139.44;;;28.25;41.01
31595;BME280;18200;48.726;8.892;2023-05-08T07:58:19;97139.72;;;29.85;38.23
31595;BME280;18200;48.726;8.892;2023-05-08T08:02:20;97135.13;;;29.82;37.98
31595;BME280;18200;48.726;8.892;2023-05-08T08:06:20;97135.75;;;29.30;38.21
31595;BME280;18200;48.726;8.892;2023-05-08T08:10:21;97145.94;;;29.71;38.65
31595;BME280;18200;48.726;8.892;2023-05-08T08:14:21;97139.09;;;30.87;36.24
31595;BME280;18200;48.726;8.892;2023-05-08T08:18:21;97141.38;;;30.88;35.40
31595;BME280;18200;48.726;8.892;2023-05-08T08:22:22;97146.47;;;31.39;34.41
31595;BME280;18200;48.726;8.892;2023-05-08T08:26:23;97150.81;;;29.85;37.37
31595;BME280;18200;48.726;8.892;2023-05-08T08:30:24;97148.88;;;29.76;38.08
31595;BME280;18200;48.726;8.892;2023-05-08T08:34:24;97155.31;;;28.75;38.80
31595;BME280;18200;48.726;8.892;2023-05-08T08:38:25;97150.91;;;30.29;36.43
31595;BME280;18200;48.726;8.892;2023-05-08T08:42:25;97149.03;;;30.79;35.32
31595;BME280;18200;48.726;8.892;2023-05-08T08:46:26;97150.94;;;31.02;35.59
31595;BME280;18200;48.726;8.892;2023-05-08T08:50:30;97146.66;;;29.57;38.15
31595;BME280;18200;48.726;8.892;2023-05-08T08:54:32;97150.69;;;29.56;38.96
31595;BME280;18200;48.726;8.892;2023-05-08T08:58:56;97141.94;;;29.25;38.14
31595;BME280;18200;48.726;8.892;2023-05-08T09:02:58;97156.25;;;29.23;38.36
31595;BME280;18200;48.726;8.892;2023-05-08T09:06:59;97156.28;;;29.70;37.69
31595;BME280;18200;48.726;8.892;2023-05-08T09:11:01;97152.41;;;31.32;34.39
31595;BME280;18200;48.726;8.892;2023-05-08T09:15:02;97155.53;;;32.14;34.12
31595;BME280;18200;48.726;8.892;2023-05-08T09:19:02;97153.94;;;31.33;34.80
31595;BME280;18200;48.726;8.892;2023-05-08T09:23:03;97152.06;;;31.10;34.89
31595;BME280;18200;48.726;8.892;2023-05-08T09:27:16;97159.28;;;31.51;34.03
31595;BME280;18200;48.726;8.892;2023-05-08T09:31:33;97157.97;;;31.32;34.37
31595;BME280;18200;48.726;8.892;2023-05-08T09:35:35;97159.63;;;31.09;34.93
31595;BME280;18200;48.726;8.892;2023-05-08T09:39:36;97161.28;;;30.87;35.30
31595;BME280;18200;48.726;8.892;2023-05-08T09:43:39;97167.50;;;31.60;34.13
31595;BME280;18200;48.726;8.892;2023-05-08T09:47:47;97165.31;;;29.80;37.69
31595;BME280;18200;48.726;8.892;2023-05-08T09:51:51;97168.44;;;31.08;35.25
31595;BME280;18200;48.726;8.892;2023-05-08T09:55:55;97172.31;;;31.45;34.30
31595;BME280;18200;48.726;8.892;2023-05-08T10:04:07;97180.41;;;30.85;36.04
31595;BME280;18200;48.726;8.892;2023-05-08T10:08:21;97181.41;;;31.31;34.74
31595;BME280;18200;48.726;8.892;2023-05-08T10:12:22;97173.75;;;31.75;33.48
31595;BME280;18200;48.726;8.892;2023-05-08T10:16:22;97179.56;;;31.57;34.47
31595;BME280;18200;48.726;8.892;2023-05-08T10:20:28;97180.88;;;31.82;34.17
31595;BME280;18200;48.726;8.892;2023-05-08T10:24:32;97181.97;;;32.50;32.44
31595;BME280;18200;48.726;8.892;2023-05-08T10:32:57;97178.81;;;32.63;32.53
31595;BME280;18200;48.726;8.892;2023-05-08T10:36:58;97179.88;;;32.20;33.57
31595;BME280;18200;48.726;8.892;2023-05-08T10:40:59;97178.16;;;31.67;34.13
31595;BME280;18200;48.726;8.892;2023-05-08T10:45:02;97169.34;;;31.49;34.85
31595;BME280;18200;48.726;8.892;2023-05-08T10:49:21;97167.75;;;32.23;34.34
31595;BME280;18200;48.726;8.892;2023-05-08T10:57:33;97163.84;;;31.54;35.78
31595;BME280;18200;48.726;8.892;2023-05-08T11:01:37;97163.19;;;31.99;34.39
31595;BME280;18200;48.726;8.892;2023-05-08T11:05:45;97159.94;;;31.46;34.58
31595;BME280;18200;48.726;8.892;2023-05-08T11:09:47;97160.41;;;31.99;34.27
31595;BME280;18200;48.726;8.892;2023-05-08T11:14:08;97163.91;;;31.25;35.88
31595;BME280;18200;48.726;8.892;2023-05-08T11:18:10;97156.66;;;31.62;34.86
31595;BME280;18200;48.726;8.892;2023-05-08T11:22:21;97155.19;;;31.87;34.72
31595;BME280;18200;48.726;8.892;2023-05-08T11:26:37;97156.84;;;32.96;33.12
31595;BME280;18200;48.726;8.892;2023-05-08T11:30:39;97154.25;;;32.87;32.43
31595;BME280;18200;48.726;8.892;2023-05-08T11:34:44;97153.59;;;33.34;31.29
31595;BME280;18200;48.726;8.892;2023-05-08T11:39:05;97147.16;;;33.17;31.06
31595;BME280;18200;48.726;8.892;2023-05-08T11:47:42;97144.53;;;33.93;30.60
31595;BME280;18200;48.726;8.892;2023-05-08T11:51:51;97145.38;;;34.10;32.31
31595;BME280;18200;48.726;8.892;2023-05-08T11:55:58;97141.22;;;33.78;30.46
31595;BME280;18200;48.726;8.892;2023-05-08T12:00:09;97135.88;;;33.37;31.67
31595;BME280;18200;48.726;8.892;2023-05-08T12:04:11;97137.09;;;33.25;32.39
31595;BME280;18200;48.726;8.892;2023-05-08T12:08:13;97136.16;;;33.82;32.79
31595;BME280;18200;48.726;8.892;2023-05-08T12:12:14;97142.97;;;35.34;29.54
31595;BME280;18200;48.726;8.892;2023-05-08T12:16:15;97140.97;;;34.90;29.65
31595;BME280;18200;48.726;8.892;2023-05-08T12:20:16;97150.63;;;35.05;29.60
31595;BME280;18200;48.726;8.892;2023-05-08T12:24:17;97142.13;;;34.17;29.79
31595;BME280;18200;48.726;8.892;2023-05-08T12:28:21;97148.09;;;34.96;28.66
31595;BME280;18200;48.726;8.892;2023-05-08T12:32:22;97143.53;;;34.71;29.21
31595;BME280;18200;48.726;8.892;2023-05-08T12:36:22;97141.50;;;34.77;29.00
31595;BME280;18200;48.726;8.892;2023-05-08T12:40:25;97144.16;;;32.58;30.93
31595;BME280;18200;48.726;8.892;2023-05-08T12:44:25;97146.56;;;33.08;31.04
31595;BME280;18200;48.726;8.892;2023-05-08T12:48:26;97143.94;;;33.24;31.17
31595;BME280;18200;48.726;8.892;2023-05-08T12:52:27;97147.72;;;33.63;30.62
31595;BME280;18200;48.726;8.892;2023-05-08T12:56:28;97145.00;;;33.32;32.29
31595;BME280;18200;48.726;8.892;2023-05-08T13:00:48;97150.28;;;31.96;34.42
31595;BME280;18200;48.726;8.892;2023-05-08T13:04:53;97140.59;;;31.52;35.45
31595;BME280;18200;48.726;8.892;2023-05-08T13:08:54;97146.06;;;31.11;35.94
31595;BME280;18200;48.726;8.892;2023-05-08T13:12:55;97136.53;;;31.18;36.65
31595;BME280;18200;48.726;8.892;2023-05-08T13:16:55;97140.66;;;29.82;38.37
31595;BME280;18200;48.726;8.892;2023-05-08T13:20:56;97135.50;;;29.75;39.84
31595;BME280;18200;48.726;8.892;2023-05-08T13:24:56;97131.44;;;30.52;37.74
31595;BME280;18200;48.726;8.892;2023-05-08T13:28:57;97131.44;;;30.67;37.93
31595;BME280;18200;48.726;8.892;2023-05-08T13:32:57;97128.28;;;30.59;38.16
31595;BME280;18200;48.726;8.892;2023-05-08T13:36:57;97123.06;;;31.46;36.30
31595;BME280;18200;48.726;8.892;2023-05-08T13:40:58;97121.50;;;31.99;35.93
31595;BME280;18200;48.726;8.892;2023-05-08T13:44:58;97111.75;;;32.61;33.50
31595;BME280;18200;48.726;8.892;2023-05-08T13:48:58;97105.19;;;31.92;34.95
31595;BME280;18200;48.726;8.892;2023-05-08T13:52:59;97108.44;;;31.65;35.64
31595;BME280;18200;48.726;8.892;2023-05-08T13:57:00;97113.97;;;31.65;35.56
31595;BME280;18200;48.726;8.892;2023-05-08T14:01:01;97105.44;;;31.49;35.65
31595;BME280;18200;48.726;8.892;2023-05-08T14:05:03;97106.63;;;31.62;35.72
31595;BME280;18200;48.726;8.892;2023-05-08T14:09:03;97097.47;;;31.96;34.29
31595;BME280;18200;48.726;8.892;2023-05-08T14:13:04;97107.44;;;31.88;34.19
31595;BME280;18200;48.726;8.892;2023-05-08T14:17:04;97102.84;;;32.05;33.94
31595;BME280;18200;48.726;8.892;2023-05-08T14:21:05;97106.47;;;31.16;35.92
31595;BME280;18200;48.726;8.892;2023-05-08T14:25:06;97095.38;;;30.52;37.42
31595;BME280;18200;48.726;8.892;2023-05-08T14:29:06;97097.75;;;30.89;36.34
31595;BME280;18200;48.726;8.892;2023-05-08T14:33:07;97096.91;;;32.18;34.36
31595;BME280;18200;48.726;8.892;2023-05-08T14:37:07;97102.88;;;32.57;34.75
31595;BME280;18200;48.726;8.892;2023-05-08T14:41:07;97101.88;;;32.08;35.96
31595;BME280;18200;48.726;8.892;2023-05-08T14:45:08;97093.38;;;30.53;37.72
31595;BME280;18200;48.726;8.892;2023-05-08T14:49:08;97091.88;;;31.56;36.80
31595;BME280;18200;48.726;8.892;2023-05-08T14:53:09;97092.03;;;31.47;36.45
31595;BME280;18200;48.726;8.892;2023-05-08T14:57:09;97098.94;;;31.37;36.03
31595;BME280;18200;48.726;8.892;2023-05-08T15:01:10;97092.56;;;31.91;35.69
31595;BME280;18200;48.726;8.892;2023-05-08T15:05:10;97093.19;;;30.86;38.03
31595;BME280;18200;48.726;8.892;2023-05-08T15:09:10;97097.22;;;29.64;39.75
31595;BME280;18200;48.726;8.892;2023-05-08T15:13:11;97091.81;;;30.08;39.32
31595;BME280;18200;48.726;8.892;2023-05-08T15:17:11;97099.56;;;31.41;36.94
31595;BME280;18200;48.726;8.892;2023-05-08T15:21:12;97094.22;;;30.30;39.14
31595;BME280;18200;48.726;8.892;2023-05-08T15:25:12;97095.06;;;30.65;38.06
31595;BME280;18200;48.726;8.892;2023-05-08T15:29:12;97096.22;;;31.57;36.70
31595;BME280;18200;48.726;8.892;2023-05-08T15:33:13;97097.78;;;32.04;35.81
31595;BME280;18200;48.726;8.892;2023-05-08T15:37:13;97109.63;;;32.25;35.61
31595;BME280;18200;48.726;8.892;2023-05-08T15:41:14;97100.25;;;31.21;37.55
31595;BME280;18200;48.726;8.892;2023-05-08T15:45:14;97105.94;;;29.96;39.29
31595;BME280;18200;48.726;8.892;2023-05-08T15:49:15;97111.28;;;29.52;40.84
31595;BME280;18200;48.726;8.892;2023-05-08T15:53:15;97115.69;;;28.69;41.94
31595;BME280;18200;48.726;8.892;2023-05-08T15:57:16;97109.13;;;28.99;41.98
31595;BME280;18200;48.726;8.892;2023-05-08T16:01:17;97110.59;;;29.66;40.88
31595;BME280;18200;48.726;8.892;2023-05-08T16:05:17;97103.31;;;30.45;39.87
31595;BME280;18200;48.726;8.892;2023-05-08T16:09:18;97108.97;;;31.69;36.86
31595;BME280;18200;48.726;8.892;2023-05-08T16:13:18;97119.56;;;32.57;36.04
31595;BME280;18200;48.726;8.892;2023-05-08T16:17:18;97117.69;;;32.23;36.50
31595;BME280;18200;48.726;8.892;2023-05-08T16:21:19;97119.41;;;32.66;35.55
31595;BME280;18200;48.726;8.892;2023-05-08T16:25:19;97122.22;;;32.46;36.45
31595;BME280;18200;48.726;8.892;2023-05-08T16:29:20;97128.31;;;32.75;34.98
31595;BME280;18200;48.726;8.892;2023-05-08T16:33:20;97125.88;;;32.83;35.04
31595;BME280;18200;48.726;8.892;2023-05-08T16:37:21;97131.00;;;32.90;35.35
31595;BME280;18200;48.726;8.892;2023-05-08T16:41:21;97132.09;;;32.72;35.79
31595;BME280;18200;48.726;8.892;2023-05-08T16:45:22;97119.88;;;32.96;35.25
31595;BME280;18200;48.726;8.892;2023-05-08T16:49:22;97118.16;;;32.16;36.63
31595;BME280;18200;48.726;8.892;2023-05-08T16:53:23;97120.00;;;31.44;37.47
31595;BME280;18200;48.726;8.892;2023-05-08T16:57:26;97121.91;;;32.95;35.12
31595;BME280;18200;48.726;8.892;2023-05-08T17:01:26;97121.31;;;32.54;35.96
31595;BME280;18200;48.726;8.892;2023-05-08T17:05:27;97121.03;;;31.26;37.65
31595;BME280;18200;48.726;8.892;2023-05-08T17:09:27;97116.34;;;32.64;35.97
31595;BME280;18200;48.726;8.892;2023-05-08T17:13:28;97114.00;;;33.19;34.78
31595;BME280;18200;48.726;8.892;2023-05-08T17:17:28;97122.56;;;32.79;35.13
31595;BME280;18200;48.726;8.892;2023-05-08T17:21:28;97122.31;;;32.82;35.64
31595;BME280;18200;48.726;8.892;2023-05-08T17:25:31;97121.09;;;33.20;34.29
31595;BME280;18200;48.726;8.892;2023-05-08T17:29:32;97131.78;;;33.27;33.73
31595;BME280;18200;48.726;8.892;2023-05-08T17:33:32;97133.41;;;32.77;36.00
31595;BME280;18200;48.726;8.892;2023-05-08T17:37:33;97134.78;;;32.36;36.38
31595;BME280;18200;48.726;8.892;2023-05-08T17:41:33;97135.56;;;32.93;35.27
31595;BME280;18200;48.726;8.892;2023-05-08T17:45:33;97137.63;;;32.98;35.24
31595;BME280;18200;48.726;8.892;2023-05-08T17:49:34;97137.25;;;32.79;35.54
31595;BME280;18200;48.726;8.892;2023-05-08T17:53:34;97147.16;;;32.86;36.19
31595;BME280;18200;48.726;8.892;2023-05-08T17:57:34;97151.94;;;33.11;35.76
31595;BME280;18200;48.726;8.892;2023-05-08T18:01:35;97144.66;;;33.19;35.02
31595;BME280;18200;48.726;8.892;2023-05-08T18:05:36;97138.00;;;33.11;35.54
31595;BME280;18200;48.726;8.892;2023-05-08T18:09:36;97143.31;;;33.09;35.45
31595;BME280;18200;48.726;8.892;2023-05-08T18:13:37;97143.91;;;32.93;35.71
31595;BME280;18200;48.726;8.892;2023-05-08T18:17:37;97150.25;;;32.94;35.91
31595;BME280;18200;48.726;8.892;2023-05-08T18:21:37;97148.38;;;32.79;35.57
31595;BME280;18200;48.726;8.892;2023-05-08T18:25:38;97150.09;;;32.26;36.49
31595;BME280;18200;48.726;8.892;2023-05-08T18:29:38;97150.63;;;32.04;37.44
31595;BME280;18200;48.726;8.892;2023-05-08T18:33:39;97159.38;;;32.43;37.00
31595;BME280;18200;48.726;8.892;2023-05-08T18:37:39;97153.97;;;32.54;36.55
31595;BME280;18200;48.726;8.892;2023-05-08T18:41:40;97153.13;;;32.48;36.15
31595;BME280;18200;48.726;8.892;2023-05-08T18:45:40;97149.09;;;32.29;36.31
31595;BME280;18200;48.726;8.892;2023-05-08T18:49:40;97155.38;;;31.63;36.78
31595;BME280;18200;48.726;8.892;2023-05-08T18:53:42;97155.16;;;31.47;37.12
31595;BME280;18200;48.726;8.892;2023-05-08T18:57:43;97149.59;;;31.47;36.94
31595;BME280;18200;48.726;8.892;2023-05-08T19:01:43;97145.66;;;31.73;36.55
31595;BME280;18200;48.726;8.892;2023-05-08T19:05:44;97144.44;;;31.05;36.77
31595;BME280;18200;48.726;8.892;2023-05-08T19:09:44;97152.09;;;30.51;37.50
31595;BME280;18200;48.726;8.892;2023-05-08T19:13:44;97143.28;;;30.67;37.78
31595;BME280;18200;48.726;8.892;2023-05-08T19:17:45;97142.94;;;30.60;37.65
31595;BME280;18200;48.726;8.892;2023-05-08T19:21:46;97138.31;;;30.42;37.78
31595;BME280;18200;48.726;8.892;2023-05-08T19:25:46;97141.50;;;30.26;38.17
31595;BME280;18200;48.726;8.892;2023-05-08T19:29:46;97131.44;;;30.67;36.64
31595;BME280;18200;48.726;8.892;2023-05-08T19:33:47;97135.53;;;30.72;37.45
31595;BME280;18200;48.726;8.892;2023-05-08T19:37:48;97139.28;;;30.83;37.05
31595;BME280;18200;48.726;8.892;2023-05-08T19:41:48;97143.00;;;30.80;36.49
31595;BME280;18200;48.726;8.892;2023-05-08T19:45:48;97154.59;;;30.79;36.36
31595;BME280;18200;48.726;8.892;2023-05-08T19:49:49;97146.16;;;30.58;36.24
31595;BME280;18200;48.726;8.892;2023-05-08T19:53:50;97146.13;;;30.29;36.32
31595;BME280;18200;48.726;8.892;2023-05-08T19:57:50;97148.91;;;29.91;37.34
31595;BME280;18200;48.726;8.892;2023-05-08T20:01:51;97152.44;;;29.68;37.08
31595;BME280;18200;48.726;8.892;2023-05-08T20:05:52;97153.34;;;29.74;37.44
31595;BME280;18200;48.726;8.892;2023-05-08T20:09:53;97164.22;;;29.54;37.74
31595;BME280;18200;48.726;8.892;2023-05-08T20:13:53;97161.38;;;29.63;36.73
31595;BME280;18200;48.726;8.892;2023-05-08T20:17:54;97161.22;;;29.01;38.52
31595;BME280;18200;48.726;8.892;2023-05-08T20:21:54;97153.38;;;29.65;37.76
31595;BME280;18200;48.726;8.892;2023-05-08T20:25:55;97158.44;;;29.43;36.96
31595;BME280;18200;48.726;8.892;2023-05-08T20:29:55;97159.34;;;29.07;37.39
31595;BME280;18200;48.726;8.892;2023-05-08T20:33:55;97154.31;;;28.96;37.75
31595;BME280;18200;48.726;8.892;2023-05-08T20:37:56;97153.69;;;28.60;38.33
31595;BME280;18200;48.726;8.892;2023-05-08T20:41:57;97148.25;;;28.74;38.66
31595;BME280;18200;48.726;8.892;2023-05-08T20:45:57;97147.66;;;28.52;38.52
31595;BME280;18200;48.726;8.892;2023-05-08T20:49:57;97142.00;;;28.37;38.22
31595;BME280;18200;48.726;8.892;2023-05-08T20:53:58;97146.94;;;29.02;38.04
31595;BME280;18200;48.726;8.892;2023-05-08T20:57:59;97138.88;;;29.13;37.59
31595;BME280;18200;48.726;8.892;2023-05-08T21:01:59;97142.28;;;29.18;38.01
31595;BME280;18200;48.726;8.892;2023-05-08T21:06:00;97146.56;;;29.09;37.65
31595;BME280;18200;48.726;8.892;2023-05-08T21:10:00;97140.63;;;28.51;38.02
31595;BME280;18200;48.726;8.892;2023-05-08T21:14:01;97138.47;;;28.64;38.19
31595;BME280;18200;48.726;8.892;2023-05-08T21:18:01;97139.06;;;28.50;37.86
31595;BME280;18200;48.726;8.892;2023-05-08T21:22:01;97138.00;;;28.57;38.16
31595;BME280;18200;48.726;8.892;2023-05-08T21:26:02;97143.41;;;28.33;37.45
31595;BME280;18200;48.726;8.892;2023-05-08T21:30:02;97151.06;;;28.47;37.33
31595;BME280;18200;48.726;8.892;2023-05-08T21:34:03;97147.94;;;28.81;37.63
31595;BME280;18200;48.726;8.892;2023-05-08T21:38:03;97137.47;;;28.85;37.94
31595;BME280;18200;48.726;8.892;2023-05-08T21:42:05;97141.88;;;28.23;37.51
31595;BME280;18200;48.726;8.892;2023-05-08T21:46:06;97132.69;;;27.99;38.16
31595;BME280;18200;48.726;8.892;2023-05-08T21:50:08;97134.50;;;28.38;37.14
31595;BME280;18200;48.726;8.892;2023-05-08T21:54:08;97136.97;;;27.73;38.28
31595;BME280;18200;48.726;8.892;2023-05-08T21:58:09;97132.06;;;28.22;37.78
31595;BME280;18200;48.726;8.892;2023-05-08T22:02:09;97129.25;;;27.58;38.28